Airfield :
LOGIN :

Register | Disclaimer

   EN    FR    IT 

 










Legend :    VFR   Marginal VFR   IFR   Intensive IFR   Very Intensive IFR
Visi :
Ceiling :
>= 8 km
>= 3000ft
5 to 8 km
1000 to 3000 ft
1500m to 5 km
500 to 1000 ft
800 to 1500m
200 to 500 ft
< 800m
< 200 ft
Symbols :   Thunderstorms  Fog  Heavy snow  Heavy precipitations  Wind > 20 kt
SIGMETs :     Misc.  Thunderstorms  Icing  Turbulence  Mountain Waves  Volcanic Ashes







- Airport Elevation : 1504 ft
- IATA code : PNA


LEPP - Noain Pamplona

CURRENT METAR :
  • 242330Z AUTO 34012KT 9999 SCT026 BKN032 12/08 Q1021

EXPIRED METARs :
  • 242300Z AUTO 34015KT 310V010 9999 SCT027 BKN033 OVC043 12/08 Q1021
  • 242230Z AUTO 33015KT 300V360 9999 SCT024 BKN031 OVC044 12/08 Q1021
  • 242200Z 34015KT 9999 BKN017 OVC023 OVC040 12/08 Q1021
  • 242130Z 34013KT 9999 OVC016 12/09 Q1021
  • 242100Z 35013KT 9999 OVC018 12/09 Q1021

TAF TAF LEPP
Valid from the 24 at 21:00 until the 25 at 21:00 UTC


242000Z 2421/2521 33014KT 9999 SCT015 BKN025 TX16/2514Z TN10/2506Z
TEMPO 2421/2518 BKN014
PROB30
TEMPO 2421/2509 32015G25KT BKN008
TEMPO 2509/2518 34018G30KT
No reported NOTAMs for that airfield.



MET'MAP, your aeronautical weather chart ! - Copyright ORBIFLY December 2007 - Disclaimer

ORBIFLY MET'MAP TEAM :

Programming & Development : Alexandra Zaïnal
Concept & Development : Baudouin d'Aumeries
Co-Development & Prog : Marc-Olivier Méhu
Technical & hardware support : Manuel Goepfert

Contact : metmap@orbifly.com




SOURCES & CREDITS :

   NOAA